createdAt,value
2022-09-06T00:00:30.713Z,13.45
2022-09-06T00:03:00.949Z,12.63
2022-09-06T00:05:32.020Z,15.28
2022-09-06T00:08:02.967Z,13.68
2022-09-06T00:10:33.860Z,19.67
2022-09-06T00:13:05.848Z,35.23
2022-09-06T00:15:36.849Z,21.00
2022-09-06T00:18:08.825Z,13.80
2022-09-06T00:20:41.344Z,12.53
2022-09-06T00:23:11.661Z,12.53
2022-09-06T00:25:43.185Z,13.08
2022-09-06T00:28:13.486Z,11.53
2022-09-06T00:30:43.680Z,11.78
2022-09-06T00:33:14.057Z,15.85
2022-09-06T00:35:45.843Z,13.22
2022-09-06T00:38:16.008Z,11.60
2022-09-06T00:40:46.261Z,11.05
2022-09-06T00:43:16.431Z,10.63
2022-09-06T00:45:46.673Z,10.53
2022-09-06T00:48:17.837Z,11.00
2022-09-06T00:50:48.840Z,9.88
2022-09-06T00:53:19.309Z,10.70
2022-09-06T00:55:50.016Z,11.65
2022-09-06T00:58:21.102Z,10.58
2022-09-06T01:00:54.315Z,11.95
2022-09-06T01:03:25.449Z,11.45
2022-09-06T01:05:56.619Z,11.33
2022-09-06T01:08:26.658Z,10.40
2022-09-06T01:10:57.973Z,9.85
2022-09-06T01:13:27.767Z,10.30
2022-09-06T01:15:59.173Z,11.08
2022-09-06T01:18:29.116Z,10.68
2022-09-06T01:21:00.769Z,11.78
2022-09-06T01:23:32.158Z,11.10
2022-09-06T01:26:03.564Z,9.95
2022-09-06T01:28:33.546Z,9.18
2022-09-06T01:31:05.294Z,7.72
2022-09-06T01:33:36.722Z,7.65
2022-09-06T01:36:08.342Z,8.30
2022-09-06T01:38:38.872Z,7.50
2022-09-06T01:41:10.326Z,7.00
2022-09-06T01:43:42.087Z,7.28
2022-09-06T01:46:13.673Z,8.30
2022-09-06T01:48:46.167Z,7.60
2022-09-06T01:51:17.892Z,7.10
2022-09-06T01:53:49.260Z,7.45
2022-09-06T01:56:20.545Z,8.00
2022-09-06T01:58:51.863Z,7.67
2022-09-06T02:01:23.337Z,7.40
2022-09-06T02:03:54.741Z,7.50
2022-09-06T02:06:26.016Z,7.55
2022-09-06T02:08:57.299Z,9.08
2022-09-06T02:11:29.075Z,8.35
2022-09-06T02:14:00.927Z,8.58
2022-09-06T02:16:32.525Z,8.20
2022-09-06T02:19:04.558Z,8.30
2022-09-06T02:21:36.617Z,8.10
2022-09-06T02:24:08.795Z,9.38
2022-09-06T02:26:40.078Z,9.55
2022-09-06T02:29:10.306Z,9.55
2022-09-06T02:31:41.610Z,9.78
2022-09-06T02:34:13.210Z,8.40
2022-09-06T02:36:43.818Z,8.78
2022-09-06T02:39:14.130Z,9.05
2022-09-06T02:41:45.859Z,9.53
2022-09-06T02:44:16.426Z,8.98
2022-09-06T02:46:46.776Z,8.90
2022-09-06T02:49:16.948Z,9.65
2022-09-06T02:51:47.087Z,9.25
2022-09-06T02:54:17.102Z,9.25
2022-09-06T02:56:51.606Z,9.20
2022-09-06T02:59:19.008Z,9.15
2022-09-06T03:01:49.414Z,9.65
2022-09-06T03:04:19.933Z,10.05
2022-09-06T03:06:50.447Z,10.30
2022-09-06T03:09:20.500Z,9.28
2022-09-06T03:11:51.068Z,9.53
2022-09-06T03:14:21.425Z,9.85
2022-09-06T03:16:51.707Z,8.88
2022-09-06T03:19:22.811Z,10.28
2022-09-06T03:21:53.048Z,10.28
2022-09-06T03:24:23.552Z,9.45
2022-09-06T03:26:54.066Z,9.80
2022-09-06T03:29:24.801Z,9.78
2022-09-06T03:31:55.149Z,9.48
2022-09-06T03:34:25.756Z,9.20
2022-09-06T03:36:55.953Z,8.55
2022-09-06T03:39:26.499Z,9.63
2022-09-06T03:41:56.572Z,10.05
2022-09-06T03:44:26.570Z,9.60
2022-09-06T03:46:56.973Z,9.40
2022-09-06T03:49:27.156Z,10.15
2022-09-06T03:51:57.722Z,9.68
2022-09-06T03:54:29.125Z,9.43
2022-09-06T03:56:59.461Z,9.58
2022-09-06T03:59:29.580Z,9.50
2022-09-06T04:01:59.726Z,9.08
2022-09-06T04:04:30.472Z,10.30
2022-09-06T04:07:00.804Z,9.85
2022-09-06T04:09:31.143Z,9.30
2022-09-06T04:12:01.271Z,10.35
2022-09-06T04:14:31.801Z,10.00
2022-09-06T04:17:02.117Z,11.00
2022-09-06T04:19:32.374Z,10.58
2022-09-06T04:22:03.060Z,9.53
2022-09-06T04:24:33.768Z,9.28
2022-09-06T04:27:04.364Z,9.25
2022-09-06T04:29:35.535Z,10.30
2022-09-06T04:32:24.688Z,8.33
2022-09-06T04:34:55.187Z,8.05
2022-09-06T04:37:25.426Z,7.92
2022-09-06T04:39:56.186Z,7.50
2022-09-06T04:42:26.365Z,8.85
2022-09-06T04:44:56.378Z,8.88
2022-09-06T04:47:27.267Z,9.03
2022-09-06T04:49:57.351Z,8.20
2022-09-06T04:52:30.233Z,8.20
2022-09-06T04:54:58.968Z,8.08
2022-09-06T04:57:29.316Z,7.22
2022-09-06T04:59:59.462Z,7.62
2022-09-06T05:02:29.750Z,7.12
2022-09-06T05:05:00.011Z,6.37
2022-09-06T05:07:30.518Z,6.53
2022-09-06T05:10:01.088Z,6.40
2022-09-06T05:12:31.566Z,6.42
2022-09-06T05:15:02.202Z,5.62
2022-09-06T05:17:39.014Z,6.35
2022-09-06T05:20:09.589Z,5.45
2022-09-06T05:22:40.095Z,5.30
2022-09-06T05:25:11.705Z,5.65
2022-09-06T05:27:41.947Z,6.05
2022-09-06T05:30:13.265Z,6.10
2022-09-06T05:32:43.574Z,5.80
2022-09-06T05:35:14.035Z,5.45
2022-09-06T05:37:44.671Z,5.83
2022-09-06T05:40:14.670Z,5.30
2022-09-06T05:42:44.892Z,5.45
2022-09-06T05:45:15.222Z,5.05
2022-09-06T05:47:45.457Z,5.08
2022-09-06T05:50:16.080Z,5.12
2022-09-06T05:52:46.314Z,5.78
2022-09-06T05:55:16.502Z,5.70
2022-09-06T05:57:47.136Z,5.37
2022-09-06T06:00:17.688Z,6.28
2022-09-06T06:02:49.790Z,5.33
2022-09-06T06:05:20.243Z,5.85
2022-09-06T06:07:50.446Z,5.20
2022-09-06T06:10:20.918Z,5.33
2022-09-06T06:12:51.747Z,5.62
2022-09-06T06:15:21.966Z,5.10
2022-09-06T06:17:52.119Z,5.22
2022-09-06T06:20:22.226Z,5.22
2022-09-06T06:22:52.451Z,5.10
2022-09-06T06:25:24.245Z,4.95
2022-09-06T06:27:55.169Z,6.12
2022-09-06T06:30:25.672Z,6.08
2022-09-06T06:32:56.199Z,5.33
2022-09-06T06:35:27.139Z,5.53
2022-09-06T06:37:58.719Z,5.58
2022-09-06T06:40:29.209Z,5.20
2022-09-06T06:42:59.948Z,5.33
2022-09-06T06:45:30.541Z,5.62
2022-09-06T06:48:01.041Z,5.35
2022-09-06T06:50:31.552Z,5.40
2022-09-06T06:53:01.757Z,5.85
2022-09-06T06:55:32.175Z,5.53
2022-09-06T06:58:03.020Z,5.83
2022-09-06T07:00:33.318Z,5.47
2022-09-06T07:03:03.487Z,5.70
2022-09-06T07:08:05.827Z,6.17
2022-09-06T07:10:36.547Z,5.85
2022-09-06T07:13:06.841Z,5.60
2022-09-06T07:15:37.188Z,5.90
2022-09-06T07:18:08.014Z,6.08
2022-09-06T07:25:41.668Z,6.08
2022-09-06T07:28:11.863Z,6.67
2022-09-06T07:30:42.052Z,7.03
2022-09-06T07:33:12.870Z,6.95
2022-09-06T07:35:44.384Z,7.45
2022-09-06T07:38:14.877Z,6.85
2022-09-06T07:40:45.134Z,6.60
2022-09-06T07:43:15.249Z,6.67
2022-09-06T07:45:45.416Z,6.20
2022-09-06T07:48:15.430Z,6.37
2022-09-06T07:50:48.827Z,6.40
2022-09-06T07:53:26.242Z,6.22
2022-09-06T07:55:50.760Z,7.05
2022-09-06T07:58:30.802Z,6.72
2022-09-06T08:01:02.694Z,6.08
2022-09-06T08:03:34.268Z,6.35
2022-09-06T08:11:09.042Z,6.40
2022-09-06T08:13:39.919Z,5.85
2022-09-06T08:16:11.589Z,6.50
2022-09-06T08:18:42.394Z,6.40
2022-09-06T08:21:14.337Z,6.87
2022-09-06T08:23:45.918Z,6.83
2022-09-06T08:26:16.674Z,6.70
2022-09-06T08:28:48.008Z,7.22
2022-09-06T08:31:21.594Z,6.60
2022-09-06T08:33:52.051Z,6.30
2022-09-06T08:36:31.133Z,7.35
2022-09-06T08:39:01.504Z,6.95
2022-09-06T08:41:31.745Z,7.17
2022-09-06T08:46:34.404Z,7.22
2022-09-06T08:49:05.047Z,7.30
2022-09-06T08:51:38.623Z,6.90
2022-09-06T08:54:11.948Z,7.17
2022-09-06T08:56:43.279Z,7.05
2022-09-06T08:59:15.351Z,7.60
2022-09-06T09:01:47.089Z,7.08
2022-09-06T09:04:18.686Z,7.33
2022-09-06T09:07:02.151Z,7.17
2022-09-06T09:09:33.146Z,7.53
2022-09-06T09:12:03.764Z,7.53
2022-09-06T09:14:36.342Z,7.28
2022-09-06T09:17:07.951Z,8.35
2022-09-06T09:19:39.909Z,7.53
2022-09-06T09:22:10.215Z,7.80
2022-09-06T09:24:41.268Z,7.53
2022-09-06T09:27:12.680Z,8.13
2022-09-06T09:32:17.724Z,7.75
2022-09-06T09:34:48.284Z,7.45
2022-09-06T09:39:53.438Z,7.75
2022-09-06T09:42:24.978Z,8.30
2022-09-06T09:44:55.428Z,7.87
2022-09-06T09:47:27.649Z,8.73
2022-09-06T09:49:59.412Z,8.60
2022-09-06T09:52:34.437Z,7.60
2022-09-06T09:55:04.774Z,8.43
2022-09-06T09:57:38.934Z,8.10
2022-09-06T10:00:10.778Z,8.18
2022-09-06T10:02:42.252Z,10.03
2022-09-06T10:05:14.177Z,8.00
2022-09-06T10:07:46.150Z,7.83
2022-09-06T10:10:18.776Z,7.22
2022-09-06T10:12:51.920Z,7.67
2022-09-06T10:15:23.756Z,7.45
2022-09-06T10:17:54.045Z,7.92
2022-09-06T10:20:26.800Z,8.00
2022-09-06T10:22:59.374Z,8.80
2022-09-06T10:25:30.918Z,8.03
2022-09-06T10:28:12.117Z,8.70
2022-09-06T10:30:38.953Z,8.70
2022-09-06T10:33:11.076Z,8.00
2022-09-06T10:35:42.128Z,8.80
2022-09-06T10:38:14.514Z,8.00
2022-09-06T10:40:47.171Z,8.50
2022-09-06T10:43:18.470Z,8.50
2022-09-06T10:45:49.935Z,8.68
2022-09-06T10:48:21.846Z,9.20
2022-09-06T10:50:51.609Z,9.35
2022-09-06T10:53:22.936Z,9.28
2022-09-06T10:55:54.273Z,10.15
2022-09-06T10:58:25.869Z,9.78
2022-09-06T11:00:57.267Z,9.05
2022-09-06T11:06:01.617Z,9.05
2022-09-06T11:08:48.620Z,9.83
2022-09-06T11:11:05.658Z,9.60
2022-09-06T11:13:35.669Z,9.95
2022-09-06T11:16:06.909Z,9.50
2022-09-06T11:18:38.262Z,10.15
2022-09-06T11:21:09.559Z,11.20
2022-09-06T11:23:40.911Z,11.20
2022-09-06T11:26:12.501Z,11.40
2022-09-06T11:28:43.784Z,11.48
2022-09-06T11:33:47.295Z,12.28
2022-09-06T11:36:19.171Z,11.53
2022-09-06T11:38:54.610Z,12.07
2022-09-06T11:41:28.414Z,12.73
2022-09-06T11:43:58.562Z,12.55
2022-09-06T11:46:29.823Z,13.83
2022-09-06T11:49:02.933Z,13.60
2022-09-06T11:51:34.971Z,13.60
2022-09-06T11:54:06.216Z,14.23
2022-09-06T11:56:39.561Z,16.82
2022-09-06T11:59:11.774Z,16.10
2022-09-06T12:01:43.077Z,20.92
2022-09-06T12:04:13.306Z,15.90
2022-09-06T12:06:44.808Z,15.83
2022-09-06T12:09:16.876Z,15.53
2022-09-06T12:11:47.700Z,15.53
2022-09-06T12:14:18.992Z,15.00
2022-09-06T12:16:50.304Z,16.17
2022-09-06T12:19:21.557Z,14.38
2022-09-06T12:21:53.060Z,14.13
2022-09-06T12:24:30.059Z,14.60
2022-09-06T12:27:06.143Z,13.83
2022-09-06T12:29:51.233Z,13.35
2022-09-06T12:32:22.637Z,13.83
2022-09-06T12:37:25.869Z,13.93
2022-09-06T12:40:00.779Z,13.70
2022-09-06T12:42:36.878Z,14.15
2022-09-06T12:45:14.155Z,15.08
2022-09-06T12:47:43.048Z,15.30
2022-09-06T12:50:17.547Z,15.15
2022-09-06T12:52:48.814Z,15.65
2022-09-06T12:58:33.969Z,15.28
2022-09-06T13:01:09.820Z,15.70
2022-09-06T13:03:43.076Z,14.80
2022-09-06T13:06:14.358Z,14.90
2022-09-06T13:08:46.650Z,13.55
2022-09-06T13:11:18.053Z,13.88
2022-09-06T13:13:52.451Z,14.05
2022-09-06T13:19:17.816Z,14.80
2022-09-06T13:21:49.817Z,15.15
2022-09-06T13:24:31.044Z,15.72
2022-09-06T13:27:05.193Z,15.95
2022-09-06T13:29:35.078Z,15.83
2022-09-06T13:32:12.990Z,15.85
2022-09-06T13:34:48.158Z,15.83
2022-09-06T13:37:18.727Z,15.28
2022-09-06T13:39:50.848Z,15.28
2022-09-06T13:42:23.364Z,14.65
2022-09-06T13:44:53.729Z,14.47
2022-09-06T13:47:25.409Z,16.02
2022-09-06T13:49:58.360Z,15.38
2022-09-06T13:52:34.183Z,15.00
2022-09-06T13:55:08.295Z,14.70
2022-09-06T13:57:39.886Z,14.78
2022-09-06T14:00:11.923Z,14.70
2022-09-06T14:02:43.838Z,14.95
2022-09-06T14:05:14.843Z,14.50
2022-09-06T14:07:59.354Z,14.50
2022-09-06T14:20:07.216Z,14.30
2022-09-06T14:22:38.082Z,14.30
2022-09-06T14:25:30.284Z,14.70
2022-09-06T14:28:02.505Z,15.03
2022-09-06T14:30:44.461Z,15.90
2022-09-06T14:33:08.661Z,16.63
2022-09-06T14:35:41.532Z,16.30
2022-09-06T14:38:14.420Z,16.70
2022-09-06T14:40:46.083Z,17.07
2022-09-06T14:43:17.092Z,17.73
2022-09-06T14:45:53.599Z,17.85
2022-09-06T14:51:06.556Z,17.27
2022-09-06T14:53:40.600Z,16.60
2022-09-06T14:56:12.318Z,17.37
2022-09-06T14:58:42.968Z,17.15
2022-09-06T15:01:14.707Z,17.35
2022-09-06T15:03:47.445Z,17.15
2022-09-06T15:06:21.477Z,16.95
2022-09-06T15:08:58.373Z,17.82
2022-09-06T15:11:26.273Z,16.77
2022-09-06T15:13:56.462Z,17.95
2022-09-06T15:16:26.668Z,18.37
2022-09-06T15:18:57.297Z,17.17
2022-09-06T15:21:27.895Z,17.10
2022-09-06T15:24:02.367Z,17.70
2022-09-06T15:26:33.313Z,16.77
2022-09-06T15:29:05.748Z,18.10
2022-09-06T15:31:37.357Z,18.75
2022-09-06T15:34:14.024Z,19.42
2022-09-06T15:36:53.654Z,20.57
2022-09-06T15:39:19.487Z,19.92
2022-09-06T15:41:51.256Z,18.05
2022-09-06T15:44:23.086Z,17.92
2022-09-06T15:47:01.033Z,17.37
2022-09-06T15:49:32.986Z,17.55
2022-09-06T15:52:04.059Z,16.73
2022-09-06T15:54:35.864Z,18.12
2022-09-06T15:57:06.560Z,17.95
2022-09-06T15:59:36.730Z,16.57
2022-09-06T16:02:10.357Z,17.90
2022-09-06T16:04:40.727Z,18.12
2022-09-06T16:07:12.702Z,18.48
2022-09-06T16:09:43.853Z,17.80
2022-09-06T16:12:14.661Z,16.95
2022-09-06T16:14:45.113Z,17.30
2022-09-06T16:17:15.273Z,17.60
2022-09-06T16:19:48.512Z,16.62
2022-09-06T16:22:19.657Z,16.90
2022-09-06T16:24:52.864Z,16.80
2022-09-06T16:27:24.910Z,16.65
2022-09-06T16:29:55.375Z,16.93
2022-09-06T16:32:27.296Z,16.77
2022-09-06T16:34:58.154Z,16.67
2022-09-06T16:37:28.690Z,14.75
2022-09-06T16:40:08.171Z,14.75
2022-09-06T16:42:38.593Z,13.78
2022-09-06T16:45:08.927Z,13.20
2022-09-06T16:47:40.671Z,13.40
2022-09-06T16:50:11.162Z,13.13
2022-09-06T16:52:42.818Z,13.90
2022-09-06T16:55:14.278Z,13.50
2022-09-06T16:57:47.462Z,14.20
2022-09-06T17:00:18.100Z,12.95
2022-09-06T17:02:48.858Z,13.70
2022-09-06T17:05:19.995Z,13.28
2022-09-06T17:07:50.627Z,13.95
2022-09-06T17:10:23.834Z,14.40
2022-09-06T17:12:55.201Z,13.98
2022-09-06T17:15:25.674Z,14.80
2022-09-06T17:17:55.998Z,13.83
2022-09-06T17:20:29.701Z,14.45
2022-09-06T17:22:59.947Z,13.30
2022-09-06T17:25:30.454Z,12.63
2022-09-06T17:28:00.549Z,13.43
2022-09-06T17:30:32.481Z,14.18
2022-09-06T17:33:02.905Z,13.65
2022-09-06T17:35:36.113Z,14.47
2022-09-06T17:38:11.839Z,14.05
2022-09-06T17:40:42.396Z,14.03
2022-09-06T17:43:12.606Z,14.07
2022-09-06T17:45:44.011Z,14.70
2022-09-06T17:48:14.334Z,14.33
2022-09-06T17:50:45.492Z,13.95
2022-09-06T17:53:15.920Z,15.55
2022-09-06T17:55:46.331Z,17.85
2022-09-06T17:58:16.419Z,18.87
2022-09-06T18:00:46.775Z,18.05
2022-09-06T18:03:17.039Z,18.17
2022-09-06T18:05:47.532Z,16.30
2022-09-06T18:08:17.634Z,15.15
2022-09-06T18:10:48.412Z,12.70
2022-09-06T18:13:18.636Z,13.18
2022-09-06T18:15:48.863Z,13.10
2022-09-06T18:18:19.690Z,12.58
2022-09-06T18:20:52.651Z,11.78
2022-09-06T18:23:25.537Z,11.33
2022-09-06T18:25:56.862Z,11.68
2022-09-06T18:28:31.717Z,12.25
2022-09-06T18:31:03.079Z,12.93
2022-09-06T18:33:33.478Z,12.78
2022-09-06T18:36:03.761Z,13.48
2022-09-06T18:38:33.801Z,14.68
2022-09-06T18:41:04.961Z,15.50
2022-09-06T18:43:37.778Z,16.17
2022-09-06T18:46:08.139Z,16.12
2022-09-06T18:48:39.262Z,15.53
2022-09-06T18:51:11.967Z,15.98
2022-09-06T18:53:44.934Z,15.75
2022-09-06T18:56:16.098Z,15.08
2022-09-06T18:58:46.369Z,16.82
2022-09-06T19:01:18.111Z,16.48
2022-09-06T19:03:48.549Z,16.27
2022-09-06T19:06:20.019Z,17.45
2022-09-06T19:08:51.253Z,17.25
2022-09-06T19:11:22.429Z,16.65
2022-09-06T19:13:54.237Z,17.05
2022-09-06T19:16:25.333Z,16.57
2022-09-06T19:18:57.104Z,17.12
2022-09-06T19:21:29.013Z,17.35
2022-09-06T19:24:00.409Z,18.27
2022-09-06T19:26:32.662Z,17.30
2022-09-06T19:29:04.185Z,17.25
2022-09-06T19:31:35.648Z,16.57
2022-09-06T19:34:06.355Z,16.40
2022-09-06T19:36:36.817Z,16.95
2022-09-06T19:39:08.328Z,16.87
2022-09-06T19:41:40.109Z,16.32
2022-09-06T19:44:10.846Z,16.37
2022-09-06T19:46:45.713Z,16.45
2022-09-06T19:49:14.978Z,15.18
2022-09-06T19:51:46.433Z,16.05
2022-09-06T19:54:17.428Z,15.20
2022-09-06T19:56:48.619Z,14.30
2022-09-06T19:59:19.100Z,14.03
2022-09-06T20:01:49.545Z,14.45
2022-09-06T20:04:21.019Z,15.28
2022-09-06T20:06:51.239Z,13.83
2022-09-06T20:09:21.625Z,15.28
2022-09-06T20:11:52.511Z,14.18
2022-09-06T20:14:22.828Z,15.30
2022-09-06T20:16:53.528Z,14.45
2022-09-06T20:19:23.810Z,14.95
2022-09-06T20:21:54.418Z,14.18
2022-09-06T20:24:25.055Z,16.17
2022-09-06T20:26:55.885Z,14.33
2022-09-06T20:29:26.242Z,15.25
2022-09-06T20:31:56.353Z,14.93
2022-09-06T20:34:26.569Z,15.63
2022-09-06T20:36:56.801Z,16.12
2022-09-06T20:39:27.024Z,15.68
2022-09-06T20:41:57.425Z,15.90
2022-09-06T20:44:27.768Z,17.27
2022-09-06T20:46:57.997Z,15.45
2022-09-06T20:49:28.318Z,15.70
2022-09-06T20:51:58.533Z,15.80
2022-09-06T20:54:28.538Z,16.62
2022-09-06T20:57:00.500Z,16.12
2022-09-06T20:59:30.825Z,15.88
2022-09-06T21:02:01.331Z,14.50
2022-09-06T21:04:31.881Z,14.45
2022-09-06T21:07:02.422Z,15.25
2022-09-06T21:09:32.549Z,15.45
2022-09-06T21:12:02.960Z,14.50
2022-09-06T21:14:33.119Z,15.38
2022-09-06T21:17:03.708Z,14.33
2022-09-06T21:19:35.371Z,15.65
2022-09-06T21:22:05.591Z,14.87
2022-09-06T21:24:35.856Z,14.73
2022-09-06T21:27:07.797Z,14.50
2022-09-06T21:29:37.948Z,14.70
2022-09-06T21:32:08.430Z,14.45
2022-09-06T21:34:38.700Z,14.20
2022-09-06T21:37:11.414Z,13.58
2022-09-06T21:39:41.632Z,14.50
2022-09-06T21:42:12.408Z,14.65
2022-09-06T21:44:42.837Z,14.15
2022-09-06T21:47:13.073Z,14.47
2022-09-06T21:49:43.454Z,13.65
2022-09-06T21:52:14.523Z,13.58
2022-09-06T21:54:44.735Z,15.23
2022-09-06T21:57:15.157Z,14.38
2022-09-06T21:59:45.505Z,13.80
2022-09-06T22:02:16.761Z,13.43
2022-09-06T22:04:47.458Z,14.73
2022-09-06T22:07:17.782Z,13.72
2022-09-06T22:09:49.966Z,13.83
2022-09-06T22:12:20.172Z,14.65
2022-09-06T22:14:50.474Z,13.72
2022-09-06T22:17:20.934Z,14.28
2022-09-06T22:19:51.056Z,12.82
2022-09-06T22:22:21.164Z,14.03
2022-09-06T22:24:51.627Z,14.30
2022-09-06T22:27:21.796Z,14.68
2022-09-06T22:29:52.251Z,14.58
2022-09-06T22:32:22.820Z,14.85
2022-09-06T22:34:53.103Z,15.25
2022-09-06T22:37:23.258Z,15.45
2022-09-06T22:39:53.914Z,14.53
2022-09-06T22:42:24.269Z,14.43
2022-09-06T22:44:55.420Z,15.55
2022-09-06T22:47:26.773Z,14.98
2022-09-06T22:49:56.785Z,14.70
2022-09-06T22:52:27.120Z,14.58
2022-09-06T22:54:57.231Z,14.25
2022-09-06T22:57:28.997Z,13.25
2022-09-06T23:00:00.546Z,14.07
2022-09-06T23:02:30.782Z,15.25
2022-09-06T23:05:01.098Z,15.40
2022-09-06T23:07:32.026Z,15.15
2022-09-06T23:10:05.626Z,14.80
2022-09-06T23:12:37.289Z,15.90
2022-09-06T23:15:08.553Z,15.35
2022-09-06T23:17:39.161Z,16.02
2022-09-06T23:20:09.662Z,15.83
2022-09-06T23:22:39.916Z,17.10
2022-09-06T23:25:10.446Z,15.90
2022-09-06T23:27:40.771Z,15.95
2022-09-06T23:30:12.595Z,16.95
2022-09-06T23:32:42.856Z,16.15
2022-09-06T23:35:13.017Z,14.98
2022-09-06T23:37:43.501Z,14.58
2022-09-06T23:40:13.926Z,14.93
2022-09-06T23:42:44.253Z,14.68
2022-09-06T23:45:14.387Z,14.83
2022-09-06T23:47:44.593Z,16.27
2022-09-06T23:50:14.917Z,15.18
2022-09-06T23:52:45.266Z,15.72
2022-09-06T23:55:15.509Z,16.65
2022-09-06T23:57:45.792Z,16.48
